Mambo — WDF9146 — position and weather

sailwx.info

Track history (hours):
 
Tides and Currents Weather Stations Pressure Air Temp Water Temp Dewpoint Dewpoint Depression Visibility Wind Speed Wind Dir Waves Ship Positions

Mambo

Owner: Souto marine holdings, Coconut grove, FL. More information available from US FCC via Universal Licensing System and Coast Guard Vessel Documentation Center.

Last reported at 2015-Jun-25 12:33 UTC. Time now 2015-Jul-04 13:38 UTC.
Position N 18°20' W 064°48'.
Warning: this ship's position is 9 days out of date.

Length 33 m; draft 2.2 m.

Type: Pleasure craft. MMSI: 338405000.

Date/timePositionNaut miles runAvg speedWind from/ knotsBaromVisibWave heightAir tempDewpointWater temp
2015-Jun-25 12:33N 18°20' W 064°48'3 3.2
2015-Jun-25 11:32N 18°22' W 064°45'0 0.0
2015-Jun-25 10:32N 18°22' W 064°45'0 0.0
2015-Jun-25 09:23N 18°22' W 064°45'0 0.0
2015-Jun-25 08:26N 18°22' W 064°45'0 0.0
2015-Jun-25 07:26N 18°22' W 064°45'0 0.0
2015-Jun-25 05:32N 18°22' W 064°45'0 0.0
2015-Jun-25 04:32N 18°22' W 064°45'0 0.0
2015-Jun-25 03:11N 18°22' W 064°45'0 0.0
2015-Jun-25 02:29N 18°22' W 064°45'0 0.0
2015-Jun-25 01:32N 18°22' W 064°45'0 0.0
2015-Jun-25 00:23N 18°22' W 064°45'0 0.0
2015-Jun-24 23:29N 18°22' W 064°45'0 0.0
2015-Jun-24 22:32N 18°22' W 064°45'0 0.0
2015-Jun-24 21:32N 18°22' W 064°45'0 0.5
2015-Jun-24 20:33N 18°22' W 064°45'1413.8
2015-Jun-24 19:32N 18°25' W 064°31'  
2015-Jun-21 14:32N 18°23' W 064°36'8 7.8
2015-Jun-21 13:30N 18°22' W 064°45'0 0.0
2015-Jun-21 12:30N 18°22' W 064°45'0 0.0
2015-Jun-21 11:27N 18°22' W 064°45'0 0.0
2015-Jun-21 10:33N 18°22' W 064°45'0 0.0
2015-Jun-21 09:30N 18°22' W 064°45'0 0.0
2015-Jun-21 08:30N 18°22' W 064°45'0 0.0
2015-Jun-21 07:30N 18°22' W 064°45'0 0.0
2015-Jun-21 06:33N 18°22' W 064°45'0 0.0
2015-Jun-21 05:30N 18°22' W 064°45'0 0.0
2015-Jun-21 04:30N 18°22' W 064°45'0 0.0
2015-Jun-21 03:21N 18°22' W 064°45'0 0.0
2015-Jun-21 02:33N 18°22' W 064°45'0 0.0
2015-Jun-21 01:30N 18°22' W 064°45'0 0.0
2015-Jun-21 00:33N 18°22' W 064°45'4 3.6
2015-Jun-20 23:33N 18°20' W 064°48'  
Track history (hours):
 
Tides and Currents Weather Stations Pressure Air Temp Water Temp Dewpoint Dewpoint Depression Visibility Wind Speed Wind Dir Waves Ship Positions

Mambo

Owner: Souto marine holdings, Coconut grove, FL. More information available from US FCC via Universal Licensing System and Coast Guard Vessel Documentation Center.

Last reported at 2015-Jun-25 12:33 UTC. Time now 2015-Jul-04 13:38 UTC.
Position N 18°20' W 064°48'.
Warning: this ship's position is 9 days out of date.

Length 33 m; draft 2.2 m.

Type: Pleasure craft. MMSI: 338405000.

Date/timePositionNaut miles runAvg speedWind from/ knotsBaromVisibWave heightAir tempDewpointWater temp
2015-Jun-25 12:33N 18°20' W 064°48'3 3.2
2015-Jun-25 11:32N 18°22' W 064°45'0 0.0
2015-Jun-25 10:32N 18°22' W 064°45'0 0.0
2015-Jun-25 09:23N 18°22' W 064°45'0 0.0
2015-Jun-25 08:26N 18°22' W 064°45'0 0.0
2015-Jun-25 07:26N 18°22' W 064°45'0 0.0
2015-Jun-25 05:32N 18°22' W 064°45'0 0.0
2015-Jun-25 04:32N 18°22' W 064°45'0 0.0
2015-Jun-25 03:11N 18°22' W 064°45'0 0.0
2015-Jun-25 02:29N 18°22' W 064°45'0 0.0
2015-Jun-25 01:32N 18°22' W 064°45'0 0.0
2015-Jun-25 00:23N 18°22' W 064°45'0 0.0
2015-Jun-24 23:29N 18°22' W 064°45'0 0.0
2015-Jun-24 22:32N 18°22' W 064°45'0 0.0
2015-Jun-24 21:32N 18°22' W 064°45'0 0.5
2015-Jun-24 20:33N 18°22' W 064°45'1413.8
2015-Jun-24 19:32N 18°25' W 064°31'  
2015-Jun-21 14:32N 18°23' W 064°36'8 7.8
2015-Jun-21 13:30N 18°22' W 064°45'0 0.0
2015-Jun-21 12:30N 18°22' W 064°45'0 0.0
2015-Jun-21 11:27N 18°22' W 064°45'0 0.0
2015-Jun-21 10:33N 18°22' W 064°45'0 0.0
2015-Jun-21 09:30N 18°22' W 064°45'0 0.0
2015-Jun-21 08:30N 18°22' W 064°45'0 0.0
2015-Jun-21 07:30N 18°22' W 064°45'0 0.0
2015-Jun-21 06:33N 18°22' W 064°45'0 0.0
2015-Jun-21 05:30N 18°22' W 064°45'0 0.0
2015-Jun-21 04:30N 18°22' W 064°45'0 0.0
2015-Jun-21 03:21N 18°22' W 064°45'0 0.0
2015-Jun-21 02:33N 18°22' W 064°45'0 0.0
2015-Jun-21 01:30N 18°22' W 064°45'0 0.0
2015-Jun-21 00:33N 18°22' W 064°45'4 3.6
2015-Jun-20 23:33N 18°20' W 064°48'  

Dump ship's entire track history